Time;durP1;ratioP1;P1;durP2;ratioP2;P2;SDS_P1;SDS_P2;PMS_P1;PMS_P2;Temp;Humidity;BMP_temperature;BMP_pressure;BME280_temperature;BME280_humidity;BME280_pressure;Samples;Min_cycle;Max_cycle;Signal;HPM_P1;HPM_P2
2022/06/07 00:02:13;;;;;;;10.45;6.15;;;;;;;12.92;100.00;99809.22;1744232;82;21023;-67
2022/06/07 00:04:39;;;;;;;10.45;5.95;;;;;;;12.89;100.00;99804.33;1758084;80;20993;-66
2022/06/07 00:07:07;;;;;;;10.10;6.20;;;;;;;12.87;100.00;99808.70;1746831;80;21015;-65
2022/06/07 00:09:35;;;;;;;9.50;6.25;;;;;;;12.85;100.00;99807.36;1733150;82;20964;-66
2022/06/07 00:12:01;;;;;;;9.65;5.83;;;;;;;12.84;100.00;99808.45;1736118;82;21466;-65
2022/06/07 00:14:28;;;;;;;9.73;5.85;;;;;;;12.86;100.00;99808.97;1725314;82;20987;-65
2022/06/07 00:16:54;;;;;;;9.25;6.00;;;;;;;12.85;100.00;99809.54;1691007;82;21027;-66
2022/06/07 00:19:22;;;;;;;8.78;6.05;;;;;;;12.81;100.00;99798.91;1739045;80;20944;-66
2022/06/07 00:21:48;;;;;;;8.90;5.83;;;;;;;12.78;100.00;99808.23;1733783;82;21071;-66
2022/06/07 00:24:15;;;;;;;9.05;6.08;;;;;;;12.76;100.00;99810.41;1719697;82;21007;-65
2022/06/07 00:26:42;;;;;;;10.60;5.75;;;;;;;12.74;100.00;99805.25;1732067;82;21051;-66
2022/06/07 00:29:08;;;;;;;8.45;5.45;;;;;;;12.75;100.00;99796.51;1735656;81;20967;-65
2022/06/07 00:31:36;;;;;;;11.20;5.85;;;;;;;12.75;100.00;99801.97;1734522;80;21621;-66
2022/06/07 00:34:04;;;;;;;7.87;5.70;;;;;;;12.76;100.00;99800.84;1733429;82;20971;-65
2022/06/07 00:36:33;;;;;;;8.68;6.00;;;;;;;12.73;100.00;99803.61;1731424;82;21054;-65
2022/06/07 00:38:59;;;;;;;7.97;5.90;;;;;;;12.67;100.00;99806.12;1728472;82;20981;-67
2022/06/07 00:41:25;;;;;;;9.88;5.67;;;;;;;12.60;100.00;99806.16;1730153;80;21035;-66
2022/06/07 00:44:32;;;;;;;9.05;5.53;;;;;;;12.44;100.00;99784.95;1734167;82;20952;-65
2022/06/07 00:47:10;;;;;;;7.97;5.75;;;;;;;12.54;100.00;99808.09;1738920;82;21043;-65
2022/06/07 00:49:48;;;;;;;9.90;6.45;;;;;;;12.50;100.00;99811.15;1737800;82;20963;-66
2022/06/07 00:52:16;;;;;;;8.78;6.65;;;;;;;12.45;100.00;99802.98;1736302;80;21522;-64
2022/06/07 00:54:44;;;;;;;8.85;5.42;;;;;;;12.42;100.00;99802.18;1694146;83;21043;-64
2022/06/07 00:57:21;;;;;;;10.32;6.67;;;;;;;12.40;100.00;99802.99;1665373;84;21026;-64
2022/06/07 00:59:49;;;;;;;9.30;6.58;;;;;;;12.31;100.00;99806.88;1724593;82;21515;-65
2022/06/07 01:02:15;;;;;;;10.10;6.12;;;;;;;12.29;100.00;99806.91;1734358;82;20996;-64
2022/06/07 01:04:42;;;;;;;13.35;6.20;;;;;;;12.30;100.00;99808.52;1713482;82;21459;-65
2022/06/07 01:12:41;;;;;;;9.20;6.42;;;;;;;12.23;100.00;99802.00;1651235;85;21056;-64
2022/06/07 01:15:09;;;;;;;8.38;6.30;;;;;;;12.16;100.00;99804.22;1665045;85;21087;-64
2022/06/07 01:17:36;;;;;;;8.98;6.15;;;;;;;12.14;100.00;99806.43;1669468;81;21030;-64
2022/06/07 01:20:04;;;;;;;9.25;5.97;;;;;;;12.15;100.00;99802.58;1726770;82;21566;-65
2022/06/07 01:22:31;;;;;;;9.60;6.30;;;;;;;12.16;100.00;99802.86;1728400;82;21025;-64
2022/06/07 01:24:57;;;;;;;11.40;6.42;;;;;;;12.18;100.00;99795.22;1726953;82;21035;-66
2022/06/07 01:27:24;;;;;;;;;;;;;;;12.09;100.00;99783.78;1734795;82;21011;-66
2022/06/07 01:29:50;;;;;;;8.43;5.72;;;;;;;12.16;100.00;99804.22;1727771;81;20119;-65
2022/06/07 01:32:18;;;;;;;9.78;5.75;;;;;;;12.04;100.00;99803.75;1728379;82;21014;-65
2022/06/07 01:34:45;;;;;;;7.90;5.90;;;;;;;12.03;100.00;99807.56;1718574;82;20972;-65
2022/06/07 01:37:17;;;;;;;9.70;6.40;;;;;;;12.04;100.00;99807.84;1721561;82;20988;-65
2022/06/07 01:42:30;;;;;;;8.43;6.05;;;;;;;12.06;100.00;99802.09;1747790;81;21007;-65
2022/06/07 01:44:57;;;;;;;9.28;5.65;;;;;;;12.06;100.00;99801.55;1734845;82;21045;-65
2022/06/07 01:47:27;;;;;;;9.78;6.47;;;;;;;12.01;100.00;99802.92;1717157;82;20975;-65
2022/06/07 01:49:56;;;;;;;13.15;5.90;;;;;;;11.93;100.00;99792.06;1723311;82;21082;-65
2022/06/07 01:52:23;;;;;;;;;;;;;;;11.89;100.00;99798.34;1730903;82;21459;-65
2022/06/07 01:54:52;;;;;;;9.43;5.58;;;;;;;11.90;100.00;99793.17;1736478;81;20109;-65
2022/06/07 01:57:19;;;;;;;8.23;5.55;;;;;;;11.87;100.00;99791.80;1727000;82;21051;-65
2022/06/07 01:59:46;;;;;;;9.80;5.72;;;;;;;11.67;100.00;99763.21;1716635;82;21009;-65
2022/06/07 02:02:15;;;;;;;8.78;5.92;;;;;;;11.94;100.00;99799.67;1709612;82;21066;-65
2022/06/07 02:04:42;;;;;;;10.10;5.67;;;;;;;11.94;100.00;99804.59;1715502;81;21896;-65
2022/06/07 02:07:12;;;;;;;9.05;5.92;;;;;;;11.90;100.00;99802.14;1725915;81;20991;-65
2022/06/07 02:09:39;;;;;;;8.03;5.60;;;;;;;11.93;100.00;99795.33;1730272;82;20928;-65
2022/06/07 02:12:07;;;;;;;8.45;5.37;;;;;;;11.96;100.00;99791.50;1703177;82;21004;-65
2022/06/07 02:14:34;;;;;;;7.25;5.40;;;;;;;11.96;100.00;99799.69;1709593;82;21526;-65
2022/06/07 02:17:01;;;;;;;9.50;5.80;;;;;;;11.99;100.00;99795.57;1739545;81;20972;-65
2022/06/07 02:19:29;;;;;;;8.98;5.33;;;;;;;12.01;100.00;99798.83;1727600;82;20974;-65
2022/06/07 02:21:55;;;;;;;9.78;5.65;;;;;;;12.01;100.00;99800.77;1711325;82;21043;-65
2022/06/07 02:24:22;;;;;;;7.85;5.30;;;;;;;12.00;100.00;99799.12;1716141;82;20963;-65
2022/06/07 02:26:52;;;;;;;;;;;;;;;12.02;100.00;99810.02;1725444;82;21067;-65
2022/06/07 02:29:36;;;;;;;7.45;4.85;;;;;;;12.09;100.00;99809.71;1716009;81;20412;-65
2022/06/07 02:32:26;;;;;;;7.12;4.72;;;;;;;12.10;100.00;99809.45;1726151;82;21051;-65
2022/06/07 02:34:56;;;;;;;9.38;5.80;;;;;;;12.15;100.00;99812.13;1736032;82;21044;-65
2022/06/07 02:37:24;;;;;;;9.58;5.17;;;;;;;12.14;100.00;99815.98;1731303;82;21546;-65
2022/06/07 02:39:51;;;;;;;8.13;4.47;;;;;;;12.10;100.00;99812.17;1721645;81;21008;-65
2022/06/07 02:42:17;;;;;;;6.95;4.37;;;;;;;12.14;100.00;99815.16;1723961;82;21566;-65
2022/06/07 02:48:09;;;;;;;8.77;4.60;;;;;;;12.29;100.00;99806.91;1814573;79;23556;-64
2022/06/07 02:50:38;;;;;;;7.67;4.62;;;;;;;12.29;100.00;99813.73;1756665;80;21666;-64
2022/06/07 02:53:04;;;;;;;8.05;4.58;;;;;;;12.33;100.00;99809.31;1774667;78;21027;-64
2022/06/07 02:55:34;;;;;;;7.10;4.42;;;;;;;12.43;100.00;99814.74;1775870;79;21062;-64
2022/06/07 02:58:02;;;;;;;7.45;4.40;;;;;;;12.54;100.00;99816.28;1790264;80;21010;-64
2022/06/07 03:00:30;;;;;;;6.95;4.45;;;;;;;12.63;100.00;99810.52;1790305;80;21015;-64
2022/06/07 03:02:57;;;;;;;6.35;4.58;;;;;;;12.69;100.00;99814.02;1777036;78;21026;-64
2022/06/07 03:05:24;;;;;;;6.70;4.67;;;;;;;12.75;100.00;99808.80;1782999;79;21045;-65
2022/06/07 03:07:54;;;;;;;7.03;4.87;;;;;;;12.80;100.00;99806.02;1784124;80;21502;-64
2022/06/07 03:10:20;;;;;;;;;;;;;;;12.84;100.00;99806.53;1790940;80;21054;-64
2022/06/07 03:12:49;;;;;;;8.45;5.00;;;;;;;12.91;100.00;99800.20;1760581;80;20099;-64
2022/06/07 03:15:17;;;;;;;8.15;5.05;;;;;;;12.98;100.00;99799.86;1777796;79;21483;-65
2022/06/07 03:17:45;;;;;;;7.90;5.53;;;;;;;13.16;100.00;99808.77;1733042;81;21056;-64
2022/06/07 03:20:14;;;;;;;7.15;4.90;;;;;;;13.41;100.00;99805.80;1720490;81;21688;-65
2022/06/07 03:22:42;;;;;;;8.38;5.47;;;;;;;13.76;100.00;99803.78;1743286;81;21042;-65
2022/06/07 03:25:10;;;;;;;9.80;5.47;;;;;;;14.19;100.00;99809.55;1741769;81;21864;-65
2022/06/07 03:27:38;;;;;;;9.85;5.72;;;;;;;14.60;100.00;99802.98;1750577;80;21090;-65
2022/06/07 03:30:09;;;;;;;10.18;6.65;;;;;;;14.95;100.00;99796.13;1735268;81;21617;-65
2022/06/07 03:32:38;;;;;;;10.80;7.58;;;;;;;15.31;100.00;99790.30;1719548;81;21555;-65
2022/06/07 03:35:08;;;;;;;10.55;7.97;;;;;;;15.71;100.00;99786.59;1687257;83;21094;-65
2022/06/07 03:37:36;;;;;;;9.00;7.22;;;;;;;16.23;100.00;99786.60;1756714;81;21496;-65
2022/06/07 03:40:06;;;;;;;9.55;7.08;;;;;;;16.74;100.00;99774.76;1748877;80;20990;-64
2022/06/07 03:42:33;;;;;;;8.55;6.50;;;;;;;17.29;100.00;99782.72;1748434;81;21488;-65
2022/06/07 03:44:59;;;;;;;8.78;7.12;;;;;;;17.81;100.00;99779.70;1732502;80;21026;-65
2022/06/07 03:47:26;;;;;;;11.40;7.20;;;;;;;18.18;100.00;99768.14;1722871;81;21061;-64
2022/06/07 03:49:53;;;;;;;11.55;7.80;;;;;;;18.47;100.00;99765.34;1702097;82;21500;-64
2022/06/07 03:52:20;;;;;;;11.15;6.92;;;;;;;18.68;100.00;99760.84;1685625;84;21140;-64
2022/06/07 03:54:49;;;;;;;9.05;7.20;;;;;;;18.85;100.00;99756.13;1694526;84;21097;-64
2022/06/07 03:57:15;;;;;;;10.45;6.85;;;;;;;19.13;100.00;99756.57;1700624;84;21504;-65
2022/06/07 03:59:43;;;;;;;9.65;7.53;;;;;;;19.36;100.00;99749.71;1692341;83;21517;-64
2022/06/07 04:02:11;;;;;;;10.13;7.60;;;;;;;19.55;100.00;99752.69;1682437;84;21090;-64
2022/06/07 04:04:38;;;;;;;9.50;6.97;;;;;;;19.67;100.00;99747.27;1699667;84;21067;-64
2022/06/07 04:09:54;;;;;;;8.43;6.15;;;;;;;20.06;100.00;99746.91;1684918;84;21050;-64
2022/06/07 04:12:26;;;;;;;9.80;6.00;;;;;;;20.62;100.00;99746.94;1686913;83;21075;-64
2022/06/07 04:14:53;;;;;;;7.50;5.60;;;;;;;21.22;100.00;99739.48;1678895;84;21487;-65
2022/06/07 04:17:20;;;;;;;7.20;5.80;;;;;;;21.82;100.00;99744.89;1687403;84;21039;-64
2022/06/07 04:19:49;;;;;;;9.43;5.83;;;;;;;22.31;100.00;99745.12;1689753;84;21014;-64
2022/06/07 04:22:17;;;;;;;8.20;5.40;;;;;;;22.79;100.00;99744.19;1700177;84;21019;-64
2022/06/07 04:24:46;;;;;;;7.97;5.58;;;;;;;23.17;100.00;99739.50;1707918;82;21603;-65
2022/06/07 04:27:14;;;;;;;9.40;4.83;;;;;;;23.46;100.00;99733.34;1682141;84;21606;-65
2022/06/07 04:29:42;;;;;;;6.00;4.75;;;;;;;23.70;100.00;99729.80;1658091;84;21006;-64
2022/06/07 04:32:11;;;;;;;7.17;4.75;;;;;;;23.78;100.00;99732.99;1674787;84;21035;-65
2022/06/07 04:34:37;;;;;;;5.95;3.92;;;;;;;23.96;100.00;99725.08;1704502;84;21502;-64
2022/06/07 04:37:05;;;;;;;4.60;3.90;;;;;;;24.07;100.00;99727.53;1695920;82;21007;-65
2022/06/07 04:39:32;;;;;;;7.00;3.80;;;;;;;24.07;100.00;99727.53;1679079;83;21442;-65
2022/06/07 04:42:04;;;;;;;5.75;3.40;;;;;;;24.22;100.00;99721.75;1685369;83;21006;-65
2022/06/07 04:44:33;;;;;;;5.78;3.37;;;;;;;24.21;100.00;99725.69;1674952;85;21010;-65
2022/06/07 04:47:00;;;;;;;4.85;2.60;;;;;;;24.33;100.00;99724.19;1706117;82;21021;-65
2022/06/07 04:49:28;;;;;;;3.90;3.08;;;;;;;24.33;100.00;99724.77;1722727;81;20997;-65
2022/06/07 04:51:55;;;;;;;5.50;3.25;;;;;;;24.53;100.00;99722.23;1729631;82;21053;-65
2022/06/07 04:54:30;;;;;;;6.33;2.58;;;;;;;24.59;100.00;99726.32;1732802;81;20993;-65
2022/06/07 04:56:57;;;;;;;5.83;2.60;;;;;;;24.77;100.00;99729.70;1789292;79;21039;-65
2022/06/07 04:59:24;;;;;;;4.95;2.72;;;;;;;25.15;100.00;99732.29;1780043;80;21451;-65
2022/06/07 05:01:53;;;;;;;3.92;2.27;;;;;;;25.51;99.44;99735.95;1774230;79;21054;-66
2022/06/07 05:04:25;;;;;;;4.00;2.20;;;;;;;25.87;96.55;99735.97;1763344;79;21531;-65
2022/06/07 05:06:52;;;;;;;3.45;2.15;;;;;;;26.20;86.32;99731.95;1775905;79;21506;-65
2022/06/07 05:09:24;;;;;;;5.17;1.98;;;;;;;26.26;83.41;99733.00;1758031;79;20999;-66
2022/06/07 05:11:54;;;;;;;3.72;1.80;;;;;;;26.22;81.06;99738.53;1774038;79;21686;-67
2022/06/07 05:14:21;;;;;;;3.95;1.98;;;;;;;26.50;79.69;99738.94;1760707;79;20971;-66
2022/06/07 05:16:48;;;;;;;3.10;1.57;;;;;;;26.88;78.76;99749.05;1706885;83;21066;-66
2022/06/07 05:19:18;;;;;;;2.35;1.40;;;;;;;27.26;73.96;99740.89;1709057;82;20983;-66
2022/06/07 05:21:46;;;;;;;2.58;1.40;;;;;;;27.43;67.90;99738.06;1715663;83;21028;-65
2022/06/07 05:24:13;;;;;;;2.70;1.40;;;;;;;27.13;59.84;99747.95;1704754;82;21045;-64
2022/06/07 05:26:45;;;;;;;2.30;1.27;;;;;;;26.96;60.64;99749.33;1732221;82;20986;-64
2022/06/07 05:29:37;;;;;;;2.47;1.30;;;;;;;27.10;57.69;99753.69;1728859;82;20966;-65
2022/06/07 05:32:05;;;;;;;2.58;1.50;;;;;;;27.34;56.59;99748.77;1751324;80;21536;-67
2022/06/07 05:34:31;;;;;;;2.95;1.30;;;;;;;27.69;57.08;99747.74;1760148;79;20952;-66
2022/06/07 05:36:58;;;;;;;3.62;1.80;;;;;;;27.93;59.62;99754.73;1783317;79;21492;-63
2022/06/07 05:39:28;;;;;;;2.05;1.37;;;;;;;28.29;52.69;99754.43;1714215;83;21407;-65
2022/06/07 05:41:57;;;;;;;4.45;1.60;;;;;;;28.53;50.12;99752.38;1688063;83;21096;-64
2022/06/07 05:44:24;;;;;;;2.25;1.35;;;;;;;28.77;53.44;99754.52;1704427;83;21004;-65
2022/06/07 05:46:52;;;;;;;3.25;1.50;;;;;;;29.07;51.05;99752.85;1715368;83;21572;-65
2022/06/07 05:49:26;;;;;;;2.52;1.57;;;;;;;29.33;48.72;99754.56;1738576;82;21004;-64
2022/06/07 05:52:07;;;;;;;3.52;1.70;;;;;;;29.46;49.14;99748.18;1686054;83;21477;-65
2022/06/07 05:54:35;;;;;;;2.92;1.50;;;;;;;29.20;46.47;99748.48;1709216;82;20964;-65
2022/06/07 05:57:02;;;;;;;3.83;1.70;;;;;;;28.74;49.74;99747.50;1715995;82;21039;-64
2022/06/07 05:59:29;;;;;;;3.17;1.55;;;;;;;28.97;49.96;99746.62;1702928;82;21482;-64
2022/06/07 06:01:56;;;;;;;4.97;1.87;;;;;;;29.48;49.66;99747.17;1712053;82;21053;-64
2022/06/07 06:04:25;;;;;;;3.45;2.10;;;;;;;29.99;45.68;99744.03;1705607;82;21009;-65
2022/06/07 06:06:57;;;;;;;4.50;1.75;;;;;;;30.04;46.19;99740.80;1711970;84;21124;-64
2022/06/07 06:12:12;;;;;;;4.83;2.20;;;;;;;30.75;44.70;99744.88;1711168;84;21044;-65
2022/06/07 06:14:57;;;;;;;3.30;1.60;;;;;;;30.75;42.72;99747.69;1715448;83;21067;-64
2022/06/07 06:17:27;;;;;;;2.52;1.72;;;;;;;30.72;43.83;99743.48;1711132;84;21067;-64
2022/06/07 06:19:55;;;;;;;4.58;1.70;;;;;;;30.89;43.96;99738.42;1737820;82;21076;-64
2022/06/07 06:22:22;;;;;;;5.42;1.98;;;;;;;31.14;42.29;99742.55;1735313;82;21615;-65
2022/06/07 06:24:56;;;;;;;4.37;1.77;;;;;;;31.11;42.65;99742.74;1744707;81;21206;-64
2022/06/07 06:27:23;;;;;;;4.90;1.98;;;;;;;31.38;42.27;99743.81;1735310;82;21036;-64
2022/06/07 06:29:50;;;;;;;4.20;2.27;;;;;;;31.58;41.46;99732.23;1733429;82;20996;-63
2022/06/07 06:32:16;;;;;;;3.75;1.67;;;;;;;31.78;41.45;99731.70;1724883;81;21599;-64
2022/06/07 06:34:45;;;;;;;3.42;1.80;;;;;;;32.10;42.48;99723.77;1741852;82;21472;-64
2022/06/07 06:37:14;;;;;;;4.97;2.00;;;;;;;32.37;42.09;99725.33;1721466;81;21072;-63
2022/06/07 06:39:42;;;;;;;3.72;2.12;;;;;;;32.56;38.84;99725.50;1711651;82;21080;-62
2022/06/07 06:42:09;;;;;;;2.60;1.37;;;;;;;32.81;39.16;99721.60;1704177;81;21023;-63
2022/06/07 06:44:43;;;;;;;2.77;1.60;;;;;;;32.96;34.08;99716.78;1701154;82;21017;-64
2022/06/07 06:47:11;;;;;;;3.17;1.87;;;;;;;32.99;34.57;99710.89;1730614;82;21483;-64
2022/06/07 06:49:41;;;;;;;2.47;1.37;;;;;;;32.89;36.83;99715.47;1711275;82;21416;-64
2022/06/07 06:52:10;;;;;;;3.37;1.55;;;;;;;32.95;37.56;99719.41;1725132;82;21461;-64
2022/06/07 06:54:37;;;;;;;2.33;1.40;;;;;;;33.18;37.75;99715.11;1721307;82;20968;-65
2022/06/07 06:57:08;;;;;;;3.37;0.90;;;;;;;33.50;36.40;99715.42;1680593;83;20980;-65
2022/06/07 06:59:35;;;;;;;1.90;1.05;;;;;;;33.44;32.81;99711.50;1681355;84;21012;-63
2022/06/07 07:02:03;;;;;;;2.10;0.90;;;;;;;33.19;31.29;99713.28;1705722;84;21052;-64
2022/06/07 07:04:32;;;;;;;2.55;1.12;;;;;;;32.86;34.22;99706.45;1705723;84;21061;-64
2022/06/07 07:06:59;;;;;;;1.90;1.10;;;;;;;32.99;32.75;99708.08;1703135;83;21104;-64
2022/06/07 07:09:28;;;;;;;1.42;0.75;;;;;;;32.84;32.82;99706.05;1681451;84;20987;-64
2022/06/07 07:11:57;;;;;;;2.40;1.05;;;;;;;32.96;32.08;99702.68;1704364;84;21056;-64
2022/06/07 07:14:25;;;;;;;1.50;0.90;;;;;;;33.17;32.67;99703.63;1707031;84;21072;-63
2022/06/07 07:16:56;;;;;;;5.50;0.80;;;;;;;33.13;31.76;99707.11;1683097;84;21067;-64
2022/06/07 07:19:22;;;;;;;1.77;1.20;;;;;;;33.02;33.59;99703.00;1704790;84;21086;-64
2022/06/07 07:21:50;;;;;;;2.00;1.20;;;;;;;33.17;32.61;99703.63;1704750;84;21044;-64
2022/06/07 07:24:22;;;;;;;2.92;0.95;;;;;;;33.23;31.64;99707.59;1705194;84;21589;-63
2022/06/07 07:26:52;;;;;;;2.35;0.70;;;;;;;33.29;31.45;99710.11;1699201;83;21581;-63
2022/06/07 07:29:22;;;;;;;2.12;0.80;;;;;;;33.15;30.52;99706.09;1706368;83;21067;-64
2022/06/07 07:31:51;;;;;;;2.37;0.90;;;;;;;32.96;32.44;99709.73;1704593;83;21155;-64
2022/06/07 07:34:19;;;;;;;1.37;0.90;;;;;;;33.13;31.28;99709.32;1714808;83;21052;-63
2022/06/07 07:36:50;;;;;;;1.57;0.78;;;;;;;33.20;31.03;99709.22;1711331;83;21039;-64
2022/06/07 07:39:17;;;;;;;3.02;0.88;;;;;;;33.27;28.73;99713.34;1690049;83;21066;-63
2022/06/07 07:41:48;;;;;;;2.20;0.90;;;;;;;33.47;28.62;99712.05;1708962;82;21016;-64
2022/06/07 07:44:16;;;;;;;1.60;0.88;;;;;;;33.03;29.57;99708.22;1720115;82;21039;-63
2022/06/07 07:46:44;;;;;;;2.72;0.90;;;;;;;32.52;29.10;99706.42;1698996;82;21101;-64
2022/06/07 07:49:14;;;;;;;2.12;0.90;;;;;;;31.54;31.46;99715.19;1717155;82;21015;-64
2022/06/07 07:51:44;;;;;;;1.92;1.00;;;;;;;31.61;33.64;99706.69;1782140;79;21027;-64
2022/06/07 07:54:13;;;;;;;1.27;0.80;;;;;;;32.01;32.36;99700.92;1705628;82;21028;-65
2022/06/07 07:56:40;;;;;;;2.80;0.70;;;;;;;32.41;33.49;99704.96;1715534;82;21068;-63
2022/06/07 07:59:08;;;;;;;1.87;0.68;;;;;;;32.89;34.01;99697.75;1727405;82;21021;-63
2022/06/07 08:01:36;;;;;;;1.55;0.60;;;;;;;33.40;32.13;99703.09;1696596;82;21084;-64
2022/06/07 08:04:04;;;;;;;1.67;0.70;;;;;;;33.77;30.64;99702.71;1712016;83;20989;-64
2022/06/07 08:06:34;;;;;;;3.35;1.00;;;;;;;34.10;28.93;99703.14;1730321;81;21533;-63
2022/06/07 08:09:02;;;;;;;2.12;0.82;;;;;;;34.33;28.77;99698.88;1734759;81;21490;-65
2022/06/07 08:11:34;;;;;;;1.47;0.95;;;;;;;34.12;29.01;99695.66;1732239;82;21064;-65
2022/06/07 08:14:06;;;;;;;2.87;0.85;;;;;;;33.91;30.43;99699.64;1742320;81;21038;-64
2022/06/07 08:16:34;;;;;;;3.25;0.70;;;;;;;33.99;29.50;99703.94;1735241;81;21112;-63
2022/06/07 08:19:01;;;;;;;2.83;0.80;;;;;;;34.07;28.72;99706.83;1713266;82;21118;-63
2022/06/07 08:21:28;;;;;;;2.70;0.82;;;;;;;34.17;27.92;99696.59;1781266;79;21126;-64
2022/06/07 08:23:55;;;;;;;2.58;0.68;;;;;;;34.19;29.02;99703.39;1764496;80;21094;-65
2022/06/07 08:26:23;;;;;;;1.55;0.78;;;;;;;34.28;28.77;99699.41;1763606;79;21566;-64
2022/06/07 08:28:49;;;;;;;1.60;0.80;;;;;;;34.22;27.38;99695.49;1692529;83;20987;-64
2022/06/07 08:31:20;;;;;;;1.70;1.00;;;;;;;34.31;27.45;99704.80;1778019;79;21620;-64
2022/06/07 08:39:17;;;;;;;1.62;0.85;;;;;;;32.75;27.65;99691.69;1794137;79;20110;-64
2022/06/07 08:41:52;;;;;;;1.75;0.65;;;;;;;32.38;29.81;99693.91;1769479;80;21122;-63
2022/06/07 08:44:30;;;;;;;2.40;0.80;;;;;;;32.88;30.14;99690.50;1782444;80;21469;-62
2022/06/07 08:47:04;;;;;;;2.75;0.90;;;;;;;33.29;28.83;99700.23;1760741;79;21034;-63
2022/06/07 08:49:30;;;;;;;1.87;0.82;;;;;;;33.39;28.28;99693.63;1729938;81;21565;-65
2022/06/07 08:52:13;;;;;;;1.75;0.80;;;;;;;32.82;28.49;99691.59;1757233;80;21106;-63
2022/06/07 08:54:40;;;;;;;1.52;0.70;;;;;;;32.39;29.10;99687.66;1721927;82;20994;-64
2022/06/07 08:57:26;;;;;;;2.30;0.70;;;;;;;32.38;28.77;99690.31;1726577;82;20959;-64
2022/06/07 08:59:55;;;;;;;2.08;0.80;;;;;;;32.08;31.45;99700.08;1724176;82;21017;-63
2022/06/07 09:02:49;;;;;;;2.25;0.70;;;;;;;32.28;29.93;99692.01;1739374;80;20964;-63
2022/06/07 09:05:16;;;;;;;1.22;0.70;;;;;;;32.60;30.16;99688.85;1740912;80;21078;-63
2022/06/07 09:07:44;;;;;;;1.40;0.60;;;;;;;32.99;28.17;99678.47;1741027;82;21016;-63
2022/06/07 09:13:02;;;;;;;1.35;0.60;;;;;;;33.01;28.23;99680.27;1733437;80;20972;-62
2022/06/07 09:15:31;;;;;;;1.37;0.60;;;;;;;32.94;28.39;99671.91;1751955;82;21066;-63
2022/06/07 09:17:58;;;;;;;2.55;0.90;;;;;;;32.03;29.67;99676.75;1749810;82;20980;-62
2022/06/07 09:20:30;;;;;;;3.83;1.00;;;;;;;31.37;31.52;99684.55;1713920;82;21067;-62
2022/06/07 09:23:03;;;;;;;1.80;1.00;;;;;;;30.91;32.79;99677.78;1733781;82;20987;-63
2022/06/07 09:25:40;;;;;;;2.12;0.75;;;;;;;30.47;32.92;99675.55;1757216;80;21028;-62
2022/06/07 09:28:11;;;;;;;1.37;0.90;;;;;;;30.09;34.10;99673.04;1742285;81;20999;-62
2022/06/07 09:30:41;;;;;;;1.82;0.78;;;;;;;29.80;36.31;99672.84;1740139;82;21090;-61
2022/06/07 09:33:21;;;;;;;3.50;0.90;;;;;;;29.63;35.42;99667.45;1725148;82;21546;-62
2022/06/07 09:35:48;;;;;;;2.83;0.70;;;;;;;29.10;36.55;99672.98;1720368;82;21034;-62
2022/06/07 09:38:34;;;;;;;2.20;0.72;;;;;;;28.82;37.46;99673.51;1750546;80;21009;-62
2022/06/07 09:44:28;;;;;;;1.90;0.80;;;;;;;28.59;36.01;99657.79;1726320;82;20995;-61
2022/06/07 09:47:04;;;;;;;2.25;1.10;;;;;;;28.31;36.88;99663.86;1751983;82;21653;-62
2022/06/07 09:49:43;;;;;;;1.75;0.90;;;;;;;27.96;37.47;99666.63;1776919;79;21507;-62
2022/06/07 09:52:26;;;;;;;1.87;0.90;;;;;;;27.74;38.40;99663.47;1766779;79;20983;-62
2022/06/07 09:54:57;;;;;;;4.50;0.82;;;;;;;27.63;40.11;99664.01;1760013;80;21063;-61
2022/06/07 09:57:36;;;;;;;1.77;0.80;;;;;;;27.62;42.29;99659.59;1762206;80;21047;-61
2022/06/07 10:00:21;;;;;;;2.02;1.00;;;;;;;27.71;42.27;99655.86;1783888;79;21531;-60
2022/06/07 10:03:03;;;;;;;1.52;1.30;;;;;;;27.76;40.26;99658.90;1785718;79;21507;-62
2022/06/07 10:05:58;;;;;;;1.30;0.90;;;;;;;27.49;41.15;99652.09;1788712;79;21535;-63
2022/06/07 10:09:03;;;;;;;2.42;0.75;;;;;;;27.35;40.26;99657.53;1710506;84;21511;-62
2022/06/07 10:12:00;;;;;;;2.15;1.00;;;;;;;27.26;45.75;99650.07;1713742;82;21458;-63
2022/06/07 10:14:47;;;;;;;4.08;0.90;;;;;;;27.45;44.43;99645.70;1720934;82;21650;-61
2022/06/07 10:17:35;;;;;;;1.80;0.72;;;;;;;27.53;43.34;99640.34;1779467;79;20961;-62
2022/06/07 10:20:22;;;;;;;1.80;0.90;;;;;;;27.57;45.17;99637.58;1793512;79;21102;-63
2022/06/07 10:23:11;;;;;;;3.30;0.90;;;;;;;27.76;44.73;99635.94;1786528;79;21582;-64
2022/06/07 10:26:21;;;;;;;1.80;1.00;;;;;;;27.92;45.61;99635.03;1790723;79;21044;-64
2022/06/07 10:29:19;;;;;;;3.72;1.05;;;;;;;28.03;41.76;99633.69;1746307;80;21030;-64
2022/06/07 10:31:55;;;;;;;1.42;0.70;;;;;;;27.65;41.09;99630.86;1784021;79;21032;-63
2022/06/07 10:34:36;;;;;;;2.30;1.00;;;;;;;27.53;44.53;99629.75;1739514;82;21031;-63
2022/06/07 10:37:14;;;;;;;3.75;1.00;;;;;;;27.65;41.70;99628.06;1757947;80;20990;-61
2022/06/07 10:40:02;;;;;;;2.17;1.10;;;;;;;27.43;39.86;99627.06;1741844;79;21540;-65
2022/06/07 10:42:46;;;;;;;2.33;0.80;;;;;;;27.13;39.98;99621.63;1721915;82;20975;-64
2022/06/07 10:45:30;;;;;;;2.70;1.25;;;;;;;26.97;41.66;99613.27;1727420;79;21555;-65
2022/06/07 10:48:11;;;;;;;1.87;1.10;;;;;;;26.95;48.64;99615.66;1708092;83;21565;-62
2022/06/07 10:52:20;;;;;;;1.32;0.93;;;;;;;27.17;48.94;99612.66;1716844;83;21065;-63
2022/06/07 10:53:42;;;;;;;1.07;0.80;;;;;;;27.34;44.23;99609.02;1701080;83;21035;-63
2022/06/07 10:56:22;;;;;;;2.25;1.00;;;;;;;27.42;45.43;99608.67;1720353;81;21604;-64
2022/06/07 10:58:52;;;;;;;1.42;0.80;;;;;;;27.53;42.16;99607.39;1712287;83;21676;-63
2022/06/07 11:01:26;;;;;;;1.37;0.90;;;;;;;27.48;41.03;99600.78;1712517;82;21433;-63
2022/06/07 11:03:58;;;;;;;2.22;1.00;;;;;;;27.35;42.27;99604.42;1723349;83;21534;-63
2022/06/07 11:09:48;;;;;;;1.80;1.10;;;;;;;27.36;42.55;99599.64;1707761;82;21026;-63
2022/06/07 11:12:24;;;;;;;2.62;1.00;;;;;;;27.30;44.59;99589.43;1706057;83;21011;-63
2022/06/07 11:15:16;;;;;;;2.52;1.10;;;;;;;27.40;41.96;99594.88;1694525;83;21031;-64
2022/06/07 11:18:09;;;;;;;1.98;1.00;;;;;;;27.37;46.30;99576.91;1715618;83;21537;-63
2022/06/07 11:20:36;;;;;;;1.67;0.90;;;;;;;27.49;49.02;99577.23;1704719;82;21066;-63
2022/06/07 11:23:25;;;;;;;1.85;0.90;;;;;;;27.67;46.18;99573.94;1711321;83;21012;-64
2022/06/07 11:26:06;;;;;;;3.45;1.00;;;;;;;27.71;41.60;99566.37;1698880;83;21134;-63
2022/06/07 11:28:44;;;;;;;1.85;1.22;;;;;;;27.61;47.11;99569.31;1694478;85;21043;-64
2022/06/07 11:31:39;;;;;;;1.92;0.75;;;;;;;27.62;45.66;99563.13;1715819;83;21114;-65
2022/06/07 11:34:28;;;;;;;3.35;0.88;;;;;;;27.56;42.00;99566.09;1716635;82;21066;-64
2022/06/07 11:37:16;;;;;;;2.40;0.90;;;;;;;27.35;43.35;99563.90;1715907;82;21025;-64
2022/06/07 11:39:53;;;;;;;2.95;1.20;;;;;;;27.15;40.23;99556.38;1720185;81;21031;-63
2022/06/07 11:42:23;;;;;;;2.08;1.25;;;;;;;26.91;41.63;99554.76;1738961;82;20955;-63
2022/06/07 11:45:07;;;;;;;2.70;1.40;;;;;;;26.82;42.29;99549.48;1740915;81;20978;-63
2022/06/07 11:48:06;;;;;;;2.27;1.05;;;;;;;27.01;45.86;99551.25;1731486;83;21028;-63
2022/06/07 11:50:58;;;;;;;2.35;1.20;;;;;;;27.19;44.09;99546.62;1727335;82;21627;-62
2022/06/07 11:53:32;;;;;;;1.80;0.90;;;;;;;27.29;43.49;99545.89;1710596;83;21072;-62
2022/06/07 11:56:35;;;;;;;2.37;0.90;;;;;;;27.37;42.93;99543.95;1698016;82;21563;-61
2022/06/07 11:59:18;;;;;;;6.15;0.95;;;;;;;27.40;43.20;99549.58;1702580;83;21539;-62
2022/06/07 12:01:50;;;;;;;2.35;1.10;;;;;;;27.41;43.42;99546.19;1661020;84;21551;-61
2022/06/07 12:04:47;;;;;;;2.45;1.07;;;;;;;27.36;44.00;99552.13;1648927;85;21538;-62
2022/06/07 12:07:38;;;;;;;2.92;1.02;;;;;;;27.32;42.54;99539.52;1669871;86;21037;-62
2022/06/07 12:10:25;;;;;;;2.77;1.00;;;;;;;27.36;43.58;99543.74;1703107;82;21066;-62
2022/06/07 12:14:07;;;;;;;3.17;1.02;;;;;;;27.49;43.46;99537.47;1818453;79;22967;-62
2022/06/07 12:16:59;;;;;;;1.60;0.93;;;;;;;27.46;43.67;99536.86;1767547;80;21023;-61
2022/06/07 12:19:29;;;;;;;2.75;1.02;;;;;;;27.46;41.07;99531.27;1761411;79;21031;-62
2022/06/07 12:22:12;;;;;;;2.77;1.00;;;;;;;27.33;42.40;99534.74;1767484;80;21055;-62
2022/06/07 12:24:50;;;;;;;3.02;1.40;;;;;;;27.14;42.90;99534.39;1779110;79;20944;-62
2022/06/07 12:27:28;;;;;;;1.70;1.22;;;;;;;26.99;42.82;99525.71;1770439;79;20993;-62
2022/06/07 12:30:00;;;;;;;1.47;0.80;;;;;;;26.87;42.48;99530.18;1712538;83;21427;-62